createdAt,value
2023-01-31T00:00:11.708Z,2.50
2023-01-31T00:02:38.633Z,2.50
2023-01-31T00:05:05.661Z,2.50
2023-01-31T00:07:32.244Z,2.50
2023-01-31T00:09:58.808Z,2.50
2023-01-31T00:12:25.393Z,2.50
2023-01-31T00:14:51.923Z,2.50
2023-01-31T00:17:18.458Z,2.50
2023-01-31T00:19:45.036Z,2.50
2023-01-31T00:22:11.627Z,2.50
2023-01-31T00:24:38.662Z,2.50
2023-01-31T00:27:05.556Z,2.50
2023-01-31T00:29:32.109Z,2.60
2023-01-31T00:31:58.751Z,2.60
2023-01-31T00:34:25.462Z,2.60
2023-01-31T00:36:52.031Z,2.60
2023-01-31T00:39:18.579Z,2.70
2023-01-31T00:41:45.138Z,2.60
2023-01-31T00:44:11.776Z,2.60
2023-01-31T00:46:39.084Z,2.50
2023-01-31T00:49:05.758Z,2.60
2023-01-31T00:51:32.423Z,2.60
2023-01-31T00:53:59.005Z,2.60
2023-01-31T00:56:25.577Z,2.60
2023-01-31T00:58:52.901Z,2.60
2023-01-31T01:01:23.120Z,2.50
2023-01-31T01:03:50.284Z,2.50
2023-01-31T01:06:17.003Z,2.50
2023-01-31T01:08:44.873Z,2.50
2023-01-31T01:11:24.123Z,2.50
2023-01-31T01:13:51.624Z,2.50
2023-01-31T01:16:25.308Z,2.50
2023-01-31T01:18:52.553Z,2.50
2023-01-31T01:21:22.418Z,2.50
2023-01-31T01:23:51.137Z,2.50
2023-01-31T01:26:24.494Z,2.50
2023-01-31T01:28:51.813Z,2.50
2023-01-31T01:31:19.808Z,2.40
2023-01-31T01:33:47.787Z,2.50
2023-01-31T01:36:17.375Z,2.50
2023-01-31T01:38:45.520Z,2.50
2023-01-31T01:41:12.862Z,2.50
2023-01-31T01:43:52.218Z,2.40
2023-01-31T01:46:25.143Z,2.40
2023-01-31T01:49:02.715Z,2.40
2023-01-31T01:51:31.171Z,2.40
2023-01-31T01:54:02.612Z,2.40
2023-01-31T01:56:33.643Z,2.40
2023-01-31T01:59:25.791Z,2.30
2023-01-31T02:01:55.175Z,2.30
2023-01-31T02:04:25.062Z,2.20
2023-01-31T02:06:52.430Z,2.20
2023-01-31T02:09:46.660Z,2.20
2023-01-31T02:12:13.375Z,2.20
2023-01-31T02:14:41.527Z,2.10
2023-01-31T02:17:16.968Z,2.10
2023-01-31T02:20:11.193Z,2.10
2023-01-31T02:23:03.187Z,2.10
2023-01-31T02:26:09.050Z,2.10
2023-01-31T02:28:50.688Z,2.10
2023-01-31T02:31:23.196Z,2.10
2023-01-31T02:33:57.965Z,2.10
2023-01-31T02:36:48.472Z,2.10
2023-01-31T02:39:58.274Z,2.00
2023-01-31T02:42:42.318Z,2.00
2023-01-31T02:45:35.046Z,2.00
2023-01-31T02:48:16.629Z,2.00
2023-01-31T02:51:09.046Z,2.00
2023-01-31T02:53:40.916Z,2.10
2023-01-31T02:56:14.887Z,2.00
2023-01-31T02:58:45.477Z,2.00
2023-01-31T03:01:17.270Z,2.00
2023-01-31T03:03:44.289Z,1.90
2023-01-31T03:06:16.769Z,2.00
2023-01-31T03:08:44.728Z,2.00
2023-01-31T03:11:11.443Z,2.00
2023-01-31T03:13:58.073Z,2.00
2023-01-31T03:16:31.146Z,2.00
2023-01-31T03:19:33.271Z,1.90
2023-01-31T03:22:14.340Z,1.90
2023-01-31T03:24:44.497Z,1.90
2023-01-31T03:27:11.395Z,1.90
2023-01-31T03:29:39.251Z,1.90
2023-01-31T03:32:14.475Z,1.90
2023-01-31T03:34:41.253Z,1.90
2023-01-31T03:37:21.373Z,1.90
2023-01-31T03:40:09.190Z,1.90
2023-01-31T03:42:48.989Z,1.80
2023-01-31T03:45:26.829Z,1.90
2023-01-31T03:47:55.901Z,1.90
2023-01-31T03:50:31.228Z,1.80
2023-01-31T03:53:00.533Z,1.90
2023-01-31T03:55:52.349Z,1.90
2023-01-31T03:58:20.581Z,1.80
2023-01-31T04:00:49.278Z,1.80
2023-01-31T04:03:30.381Z,1.80
2023-01-31T04:05:57.317Z,1.90
2023-01-31T04:08:24.367Z,1.80
2023-01-31T04:10:51.147Z,1.80
2023-01-31T04:13:17.729Z,1.80
2023-01-31T04:15:44.375Z,1.80
2023-01-31T04:18:11.012Z,1.90
2023-01-31T04:20:37.577Z,1.90
2023-01-31T04:23:04.739Z,1.80
2023-01-31T04:25:32.845Z,1.90
2023-01-31T04:28:00.164Z,1.80
2023-01-31T04:30:26.776Z,1.80
2023-01-31T04:32:53.381Z,1.70
2023-01-31T04:35:20.225Z,1.80
2023-01-31T04:37:46.887Z,1.80
2023-01-31T04:40:13.484Z,1.70
2023-01-31T04:42:40.381Z,1.70
2023-01-31T04:45:08.000Z,1.80
2023-01-31T04:47:34.578Z,1.80
2023-01-31T04:50:01.211Z,1.80
2023-01-31T04:52:27.765Z,1.70
2023-01-31T04:54:54.363Z,1.70
2023-01-31T04:57:20.949Z,1.70
2023-01-31T04:59:47.503Z,1.70
2023-01-31T05:02:14.038Z,1.70
2023-01-31T05:04:40.725Z,1.70
2023-01-31T05:07:07.843Z,1.80
2023-01-31T05:09:34.525Z,1.80
2023-01-31T05:12:01.105Z,1.70
2023-01-31T05:14:27.690Z,1.70
2023-01-31T05:16:54.261Z,1.70
2023-01-31T05:19:20.837Z,1.70
2023-01-31T05:21:47.370Z,1.70
2023-01-31T05:24:13.913Z,1.70
2023-01-31T05:26:40.494Z,1.70
2023-01-31T05:29:07.047Z,1.70
2023-01-31T05:31:33.675Z,1.80
2023-01-31T05:34:00.255Z,1.70
2023-01-31T05:36:26.830Z,1.70
2023-01-31T05:38:53.423Z,1.70
2023-01-31T05:41:19.963Z,1.70
2023-01-31T05:43:46.520Z,1.80
2023-01-31T05:46:13.190Z,1.70
2023-01-31T05:48:39.774Z,1.80
2023-01-31T05:51:06.341Z,1.70
2023-01-31T05:53:32.899Z,1.70
2023-01-31T05:55:59.437Z,1.70
2023-01-31T05:58:25.959Z,1.70
2023-01-31T06:00:56.018Z,1.70
2023-01-31T06:03:22.696Z,1.70
2023-01-31T06:05:49.329Z,1.70
2023-01-31T06:08:15.932Z,1.70
2023-01-31T06:10:42.501Z,1.60
2023-01-31T06:13:09.037Z,1.60
2023-01-31T06:15:35.605Z,1.60
2023-01-31T06:18:02.203Z,1.60
2023-01-31T06:20:28.747Z,1.60
2023-01-31T06:22:55.353Z,1.70
2023-01-31T06:25:22.315Z,1.70
2023-01-31T06:27:49.078Z,1.60
2023-01-31T06:30:15.718Z,1.60
2023-01-31T06:32:42.299Z,1.60
2023-01-31T06:35:09.149Z,1.60
2023-01-31T06:37:35.772Z,1.50
2023-01-31T06:40:02.420Z,1.50
2023-01-31T06:42:28.998Z,1.50
2023-01-31T06:44:55.576Z,1.50
2023-01-31T06:47:22.161Z,1.50
2023-01-31T06:49:48.699Z,1.50
2023-01-31T06:52:15.457Z,1.40
2023-01-31T06:54:42.101Z,1.40
2023-01-31T06:57:08.638Z,1.40
2023-01-31T06:59:35.210Z,1.40
2023-01-31T07:02:01.768Z,1.30
2023-01-31T07:04:28.333Z,1.30
2023-01-31T07:06:54.915Z,1.30
2023-01-31T07:09:22.448Z,1.30
2023-01-31T07:11:49.005Z,1.30
2023-01-31T07:14:15.664Z,1.30
2023-01-31T07:16:42.261Z,1.30
2023-01-31T07:19:08.910Z,1.30
2023-01-31T07:21:35.513Z,1.30
2023-01-31T07:24:02.828Z,1.30
2023-01-31T07:26:29.968Z,1.30
2023-01-31T07:28:56.571Z,1.30
2023-01-31T07:31:23.197Z,1.30
2023-01-31T07:33:50.024Z,1.30
2023-01-31T07:36:17.023Z,1.30
2023-01-31T07:38:43.619Z,1.30
2023-01-31T07:41:11.512Z,1.30
2023-01-31T07:43:38.083Z,1.30
2023-01-31T07:46:08.754Z,1.40
2023-01-31T07:48:35.393Z,1.30
2023-01-31T07:51:03.259Z,1.40
2023-01-31T07:53:33.054Z,1.40
2023-01-31T07:56:11.210Z,1.40
2023-01-31T07:58:38.918Z,1.40
2023-01-31T08:01:05.981Z,1.40
2023-01-31T08:03:33.461Z,1.40
2023-01-31T08:06:08.505Z,1.30
2023-01-31T08:08:36.428Z,1.40
2023-01-31T08:11:03.938Z,1.50
2023-01-31T08:13:31.650Z,1.60
2023-01-31T08:15:58.338Z,1.60
2023-01-31T08:18:25.408Z,1.50
2023-01-31T08:20:52.124Z,1.40
2023-01-31T08:23:18.807Z,1.50
2023-01-31T08:25:45.449Z,1.50
2023-01-31T08:28:12.024Z,1.50
2023-01-31T08:30:43.868Z,1.50
2023-01-31T08:33:11.701Z,1.50
2023-01-31T08:35:38.300Z,1.60
2023-01-31T08:38:16.157Z,1.60
2023-01-31T08:40:43.426Z,1.70
2023-01-31T08:43:10.021Z,1.70
2023-01-31T08:45:37.022Z,1.80
2023-01-31T08:48:04.470Z,1.80
2023-01-31T08:50:32.776Z,1.90
2023-01-31T08:53:02.933Z,1.90
2023-01-31T08:55:31.283Z,2.00
2023-01-31T08:58:00.162Z,2.20
2023-01-31T09:00:27.387Z,2.40
2023-01-31T09:02:56.592Z,2.40
2023-01-31T09:05:24.136Z,2.40
2023-01-31T09:07:50.998Z,2.40
2023-01-31T09:10:18.953Z,2.40
2023-01-31T09:12:45.965Z,2.40
2023-01-31T09:15:12.989Z,2.40
2023-01-31T09:17:40.228Z,2.40
2023-01-31T09:20:07.876Z,2.40
2023-01-31T09:22:34.844Z,2.50
2023-01-31T09:25:02.094Z,2.50
2023-01-31T09:27:29.782Z,2.60
2023-01-31T09:29:56.466Z,2.70
2023-01-31T09:32:23.046Z,2.80
2023-01-31T09:34:49.997Z,2.90
2023-01-31T09:37:16.659Z,3.00
2023-01-31T09:39:43.206Z,3.10
2023-01-31T09:42:15.975Z,3.20
2023-01-31T09:44:45.486Z,3.30
2023-01-31T09:47:23.705Z,3.50
2023-01-31T09:49:54.748Z,3.60
2023-01-31T09:52:22.493Z,3.60
2023-01-31T09:54:49.501Z,3.70
2023-01-31T09:57:37.870Z,3.70
2023-01-31T10:00:15.985Z,3.70
2023-01-31T10:03:03.951Z,3.70
2023-01-31T10:05:44.707Z,3.80
2023-01-31T10:08:40.262Z,3.80
2023-01-31T10:11:13.803Z,3.70
2023-01-31T10:13:56.408Z,3.60
2023-01-31T10:16:31.669Z,3.60
2023-01-31T10:19:12.206Z,3.60
2023-01-31T10:21:43.737Z,3.70
2023-01-31T10:24:24.491Z,3.70
2023-01-31T10:26:55.312Z,3.70
2023-01-31T10:29:31.910Z,3.80
2023-01-31T10:32:25.560Z,3.90
2023-01-31T10:34:58.779Z,3.90
2023-01-31T10:37:39.462Z,3.90
2023-01-31T10:40:19.346Z,4.00
2023-01-31T10:42:53.154Z,4.20
2023-01-31T10:45:26.120Z,4.30
2023-01-31T10:47:56.811Z,4.20
2023-01-31T10:50:41.141Z,4.30
2023-01-31T10:53:37.550Z,4.30
2023-01-31T10:56:07.534Z,4.30
2023-01-31T10:58:35.506Z,4.30
2023-01-31T11:01:05.580Z,4.30
2023-01-31T11:03:32.153Z,4.30
2023-01-31T11:05:58.828Z,4.30
2023-01-31T11:08:40.109Z,4.40
2023-01-31T11:11:11.964Z,4.40
2023-01-31T11:13:40.079Z,4.40
2023-01-31T11:16:09.536Z,4.40
2023-01-31T11:18:47.347Z,4.30
2023-01-31T11:21:32.061Z,4.30
2023-01-31T11:24:07.747Z,4.30
2023-01-31T11:26:39.799Z,4.20
2023-01-31T11:29:19.898Z,4.20
2023-01-31T11:31:47.945Z,4.20
2023-01-31T11:34:34.800Z,4.20
2023-01-31T11:37:13.045Z,4.20
2023-01-31T11:39:39.862Z,4.20
2023-01-31T11:42:16.267Z,4.10
2023-01-31T11:44:59.664Z,4.10
2023-01-31T11:47:32.526Z,4.10
2023-01-31T11:50:00.636Z,4.10
2023-01-31T11:52:33.708Z,4.10
2023-01-31T11:55:06.742Z,4.00
2023-01-31T11:57:36.128Z,4.00
2023-01-31T12:00:08.122Z,4.00
2023-01-31T12:02:41.963Z,4.00
2023-01-31T12:05:11.701Z,4.10
2023-01-31T12:07:50.375Z,4.20
2023-01-31T12:10:27.701Z,4.10
2023-01-31T12:13:12.281Z,4.30
2023-01-31T12:15:50.892Z,4.30
2023-01-31T12:18:55.659Z,4.30
2023-01-31T12:21:38.913Z,4.30
2023-01-31T12:24:41.012Z,4.20
2023-01-31T12:27:43.726Z,4.20
2023-01-31T12:30:30.355Z,4.40
2023-01-31T12:33:18.777Z,4.80
2023-01-31T12:36:05.046Z,5.20
2023-01-31T12:39:15.612Z,5.50
2023-01-31T12:41:51.405Z,5.70
2023-01-31T12:44:29.756Z,5.80
2023-01-31T12:47:11.871Z,5.90
2023-01-31T12:49:47.469Z,5.80
2023-01-31T12:52:32.419Z,5.70
2023-01-31T12:55:02.043Z,5.60
2023-01-31T12:57:31.577Z,5.60
2023-01-31T13:00:19.189Z,5.70
2023-01-31T13:03:13.737Z,5.70
2023-01-31T13:05:56.438Z,5.70
2023-01-31T13:08:32.767Z,5.50
2023-01-31T13:11:11.051Z,5.30
2023-01-31T13:13:46.190Z,5.10
2023-01-31T13:16:20.249Z,5.00
2023-01-31T13:18:49.218Z,4.90
2023-01-31T13:21:19.880Z,4.80
2023-01-31T13:23:55.610Z,4.80
2023-01-31T13:26:27.982Z,4.70
2023-01-31T13:29:04.223Z,4.70
2023-01-31T13:31:37.712Z,4.70
2023-01-31T13:34:19.104Z,4.70
2023-01-31T13:36:47.809Z,4.70
2023-01-31T13:39:23.565Z,4.70
2023-01-31T13:41:50.289Z,4.60
2023-01-31T13:44:16.981Z,4.60
2023-01-31T13:47:12.155Z,4.60
2023-01-31T13:49:42.738Z,4.60
2023-01-31T13:52:23.311Z,4.50
2023-01-31T13:55:08.964Z,4.50
2023-01-31T13:57:41.528Z,4.50
2023-01-31T14:00:34.620Z,4.50
2023-01-31T14:03:16.819Z,4.50
2023-01-31T14:05:43.597Z,4.40
2023-01-31T14:08:38.352Z,4.40
2023-01-31T14:11:28.296Z,4.50
2023-01-31T14:14:09.913Z,4.40
2023-01-31T14:16:42.093Z,4.30
2023-01-31T14:19:20.848Z,4.30
2023-01-31T14:22:14.369Z,4.10
2023-01-31T14:24:47.031Z,4.10
2023-01-31T14:27:34.280Z,4.10
2023-01-31T14:30:07.199Z,4.00
2023-01-31T14:32:48.879Z,4.00
2023-01-31T14:35:15.479Z,4.10
2023-01-31T14:37:57.777Z,4.00
2023-01-31T14:40:27.833Z,4.00
2023-01-31T14:43:19.637Z,4.10
2023-01-31T14:46:08.419Z,4.00
2023-01-31T14:48:47.017Z,4.00
2023-01-31T14:51:25.496Z,3.90
2023-01-31T14:54:01.216Z,3.90
2023-01-31T14:56:33.526Z,3.90
2023-01-31T14:59:00.177Z,3.90
2023-01-31T15:01:35.776Z,4.00
2023-01-31T15:04:04.354Z,3.90
2023-01-31T15:06:35.560Z,3.80
2023-01-31T15:09:20.681Z,3.80
2023-01-31T15:11:52.567Z,3.80
2023-01-31T15:14:38.361Z,3.70
2023-01-31T15:17:20.345Z,3.70
2023-01-31T15:20:03.165Z,3.70
2023-01-31T15:22:30.724Z,3.70
2023-01-31T15:25:01.335Z,3.60
2023-01-31T15:27:30.625Z,3.60
2023-01-31T15:30:27.658Z,3.70
2023-01-31T15:33:06.707Z,3.70
2023-01-31T15:35:38.088Z,3.70
2023-01-31T15:38:25.808Z,3.60
2023-01-31T15:41:38.737Z,3.70
2023-01-31T15:44:25.850Z,3.70
2023-01-31T15:46:56.888Z,3.70
2023-01-31T15:49:39.742Z,3.70
2023-01-31T15:52:13.332Z,3.70
2023-01-31T15:54:51.212Z,3.70
2023-01-31T15:57:18.107Z,3.60
2023-01-31T15:59:46.895Z,3.70
2023-01-31T16:02:25.065Z,3.60
2023-01-31T16:04:51.737Z,3.60
2023-01-31T16:07:20.987Z,3.70
2023-01-31T16:09:48.580Z,3.70
2023-01-31T16:12:15.985Z,3.70
2023-01-31T16:14:48.174Z,3.70
2023-01-31T16:17:15.825Z,3.70
2023-01-31T16:19:42.648Z,3.70
2023-01-31T16:22:26.083Z,3.70
2023-01-31T16:24:54.932Z,3.70
2023-01-31T16:27:22.128Z,3.70
2023-01-31T16:29:52.537Z,3.70
2023-01-31T16:32:34.020Z,3.70
2023-01-31T16:35:19.085Z,3.60
2023-01-31T16:37:46.265Z,3.70
2023-01-31T16:40:34.025Z,3.70
2023-01-31T16:43:20.048Z,3.70
2023-01-31T16:46:18.290Z,3.70
2023-01-31T16:49:16.848Z,3.70
2023-01-31T16:51:44.591Z,3.70
2023-01-31T16:54:18.781Z,3.70
2023-01-31T16:57:05.939Z,3.70
2023-01-31T16:59:35.320Z,3.60
2023-01-31T17:02:21.669Z,3.70
2023-01-31T17:04:51.353Z,3.70
2023-01-31T17:07:33.775Z,3.70
2023-01-31T17:10:06.769Z,3.70
2023-01-31T17:12:37.488Z,3.70
2023-01-31T17:15:15.336Z,3.70
2023-01-31T17:17:41.993Z,3.60
2023-01-31T17:20:09.939Z,3.70
2023-01-31T17:22:36.518Z,3.70
2023-01-31T17:25:03.142Z,3.70
2023-01-31T17:27:29.704Z,3.70
2023-01-31T17:29:56.262Z,3.70
2023-01-31T17:32:22.855Z,3.70
2023-01-31T17:34:49.436Z,3.70
2023-01-31T17:37:20.722Z,3.70
2023-01-31T17:39:50.353Z,3.70
2023-01-31T17:42:18.909Z,3.70
2023-01-31T17:44:45.637Z,3.70
2023-01-31T17:47:12.432Z,3.70
2023-01-31T17:49:39.209Z,3.70
2023-01-31T17:52:05.857Z,3.70
2023-01-31T17:54:32.463Z,3.70
2023-01-31T17:56:59.061Z,3.70
2023-01-31T17:59:27.534Z,3.60
2023-01-31T18:01:54.468Z,3.60
2023-01-31T18:04:21.123Z,3.70
2023-01-31T18:06:47.733Z,3.60
2023-01-31T18:09:14.723Z,3.60
2023-01-31T18:11:41.305Z,3.60
2023-01-31T18:14:07.865Z,3.60
2023-01-31T18:16:34.482Z,3.70
2023-01-31T18:19:01.034Z,3.60
2023-01-31T18:21:27.620Z,3.60
2023-01-31T18:23:56.233Z,3.60
2023-01-31T18:26:23.989Z,3.70
2023-01-31T18:28:50.892Z,3.60
2023-01-31T18:31:18.117Z,3.60
2023-01-31T18:33:46.917Z,3.60
2023-01-31T18:36:17.356Z,3.60
2023-01-31T18:38:45.435Z,3.60
2023-01-31T18:41:13.734Z,3.60
2023-01-31T18:43:41.313Z,3.60
2023-01-31T18:46:07.926Z,3.60
2023-01-31T18:48:34.530Z,3.60
2023-01-31T18:51:02.315Z,3.60
2023-01-31T18:53:28.849Z,3.50
2023-01-31T18:56:05.591Z,3.60
2023-01-31T18:58:37.444Z,3.60
2023-01-31T19:01:09.890Z,3.60
2023-01-31T19:03:37.400Z,3.60
2023-01-31T19:06:08.223Z,3.60
2023-01-31T19:08:34.850Z,3.70
2023-01-31T19:11:05.628Z,3.60
2023-01-31T19:13:32.260Z,3.60
2023-01-31T19:16:00.491Z,3.60
2023-01-31T19:18:27.510Z,3.60
2023-01-31T19:20:54.089Z,3.60
2023-01-31T19:23:21.104Z,3.60
2023-01-31T19:25:47.860Z,3.60
2023-01-31T19:28:14.417Z,3.60
2023-01-31T19:30:41.133Z,3.60
2023-01-31T19:33:07.920Z,3.60
2023-01-31T19:35:34.537Z,3.60
2023-01-31T19:38:01.111Z,3.60
2023-01-31T19:40:27.683Z,3.60
2023-01-31T19:42:54.245Z,3.60
2023-01-31T19:45:22.779Z,3.60
2023-01-31T19:47:49.645Z,3.60
2023-01-31T19:50:16.682Z,3.60
2023-01-31T19:52:43.241Z,3.70
2023-01-31T19:55:09.791Z,3.60
2023-01-31T19:57:36.432Z,3.70
2023-01-31T20:00:04.216Z,3.60
2023-01-31T20:02:30.842Z,3.70
2023-01-31T20:04:57.904Z,3.70
2023-01-31T20:07:25.408Z,3.70
2023-01-31T20:09:51.974Z,3.70
2023-01-31T20:12:18.566Z,3.70
2023-01-31T20:14:45.143Z,3.70
2023-01-31T20:17:11.690Z,3.70
2023-01-31T20:19:38.253Z,3.80
2023-01-31T20:22:04.874Z,3.70
2023-01-31T20:24:31.538Z,3.70
2023-01-31T20:27:00.219Z,3.70
2023-01-31T20:29:27.778Z,3.70
2023-01-31T20:31:54.406Z,3.70
2023-01-31T20:34:20.958Z,3.70
2023-01-31T20:36:47.508Z,3.70
2023-01-31T20:39:14.076Z,3.60
2023-01-31T20:41:40.641Z,3.70
2023-01-31T20:44:07.210Z,3.60
2023-01-31T20:46:33.937Z,3.70
2023-01-31T20:49:00.486Z,3.70
2023-01-31T20:51:27.146Z,3.60
2023-01-31T20:53:53.733Z,3.60
2023-01-31T20:56:20.372Z,3.70
2023-01-31T20:58:46.944Z,3.70
2023-01-31T21:01:13.615Z,3.70
2023-01-31T21:03:40.413Z,3.60
2023-01-31T21:06:07.511Z,3.70
2023-01-31T21:08:34.611Z,3.60
2023-01-31T21:11:06.054Z,3.60
2023-01-31T21:13:32.769Z,3.60
2023-01-31T21:16:02.347Z,3.60
2023-01-31T21:18:32.559Z,3.60
2023-01-31T21:21:02.492Z,3.60
2023-01-31T21:23:29.076Z,3.50
2023-01-31T21:26:10.340Z,3.50
2023-01-31T21:31:06.733Z,3.60
2023-01-31T21:33:33.352Z,3.50
2023-01-31T21:36:05.938Z,3.50
2023-01-31T21:38:32.536Z,3.60
2023-01-31T21:41:00.699Z,3.50
2023-01-31T21:43:27.261Z,3.50
2023-01-31T21:45:53.813Z,3.50
2023-01-31T21:48:20.387Z,3.50
2023-01-31T21:50:46.953Z,3.50
2023-01-31T21:53:13.522Z,3.50
2023-01-31T21:55:40.078Z,3.50
2023-01-31T21:58:06.676Z,3.50
2023-01-31T22:00:33.316Z,3.40
2023-01-31T22:02:59.900Z,3.40
2023-01-31T22:05:26.503Z,3.40
2023-01-31T22:07:53.061Z,3.40
2023-01-31T22:10:20.129Z,3.50
2023-01-31T22:12:47.022Z,3.50
2023-01-31T22:15:13.625Z,3.50
2023-01-31T22:17:40.178Z,3.40
2023-01-31T22:20:07.168Z,3.40
2023-01-31T22:22:33.716Z,3.40
2023-01-31T22:25:00.266Z,3.30
2023-01-31T22:27:26.803Z,3.30
2023-01-31T22:29:55.420Z,3.30
2023-01-31T22:32:25.114Z,3.20
2023-01-31T22:34:51.638Z,3.20
2023-01-31T22:37:18.208Z,3.20
2023-01-31T22:39:44.753Z,3.20
2023-01-31T22:42:11.318Z,3.30
2023-01-31T22:44:37.852Z,3.30
2023-01-31T22:47:04.514Z,3.40
2023-01-31T22:49:31.080Z,3.40
2023-01-31T22:51:57.638Z,3.40
2023-01-31T22:54:24.248Z,3.40
2023-01-31T22:56:50.806Z,3.40
2023-01-31T22:59:17.360Z,3.40
2023-01-31T23:01:43.896Z,3.40
2023-01-31T23:04:11.091Z,3.50
2023-01-31T23:06:37.884Z,3.50
2023-01-31T23:09:04.956Z,3.50
2023-01-31T23:11:31.525Z,3.50
2023-01-31T23:13:58.584Z,3.60
2023-01-31T23:16:26.344Z,3.60
2023-01-31T23:18:52.900Z,3.60
2023-01-31T23:21:19.571Z,3.70
2023-01-31T23:23:46.126Z,3.70
2023-01-31T23:26:13.216Z,3.70
2023-01-31T23:28:40.282Z,3.70
2023-01-31T23:31:07.204Z,3.70
2023-01-31T23:33:33.926Z,3.70
2023-01-31T23:36:00.659Z,3.80
2023-01-31T23:38:27.221Z,3.80
2023-01-31T23:40:54.520Z,3.80
2023-01-31T23:43:22.348Z,3.80
2023-01-31T23:45:49.121Z,3.90
2023-01-31T23:48:15.762Z,3.80
2023-01-31T23:50:42.352Z,3.80
2023-01-31T23:53:08.994Z,3.80
2023-01-31T23:55:35.622Z,3.80
2023-01-31T23:58:02.240Z,3.80
